sensor_id;sensor_type;location;lat;lon;timestamp;pressure;altitude;pressure_sealevel;temperature
8533;BMP280;4304;53.876;10.662;2023-05-27T00:01:18;102922.25;;;9.27
8533;BMP280;4304;53.876;10.662;2023-05-27T00:03:44;102925.84;;;9.23
8533;BMP280;4304;53.876;10.662;2023-05-27T00:06:10;102938.75;;;9.24
8533;BMP280;4304;53.876;10.662;2023-05-27T00:08:35;102937.88;;;9.24
8533;BMP280;4304;53.876;10.662;2023-05-27T00:11:01;102933.69;;;9.20
8533;BMP280;4304;53.876;10.662;2023-05-27T00:13:26;102929.34;;;9.20
8533;BMP280;4304;53.876;10.662;2023-05-27T00:15:52;102932.03;;;9.17
8533;BMP280;4304;53.876;10.662;2023-05-27T00:18:17;102929.50;;;9.16
8533;BMP280;4304;53.876;10.662;2023-05-27T00:20:42;102929.50;;;9.16
8533;BMP280;4304;53.876;10.662;2023-05-27T00:23:08;102946.00;;;9.12
8533;BMP280;4304;53.876;10.662;2023-05-27T00:25:33;102931.47;;;9.06
8533;BMP280;4304;53.876;10.662;2023-05-27T00:27:58;102935.78;;;9.07
8533;BMP280;4304;53.876;10.662;2023-05-27T00:30:24;102924.69;;;9.02
8533;BMP280;4304;53.876;10.662;2023-05-27T00:32:49;102931.63;;;9.00
8533;BMP280;4304;53.876;10.662;2023-05-27T00:35:14;102936.78;;;9.02
8533;BMP280;4304;53.876;10.662;2023-05-27T00:37:41;102936.88;;;8.97
8533;BMP280;4304;53.876;10.662;2023-05-27T00:40:09;102927.44;;;8.95
8533;BMP280;4304;53.876;10.662;2023-05-27T00:42:35;102921.66;;;8.86
8533;BMP280;4304;53.876;10.662;2023-05-27T00:45:02;102929.34;;;8.89
8533;BMP280;4304;53.876;10.662;2023-05-27T00:47:30;102922.53;;;8.86
8533;BMP280;4304;53.876;10.662;2023-05-27T00:49:56;102933.72;;;8.87
8533;BMP280;4304;53.876;10.662;2023-05-27T00:52:21;102936.25;;;8.90
8533;BMP280;4304;53.876;10.662;2023-05-27T00:54:47;102930.31;;;8.86
8533;BMP280;4304;53.876;10.662;2023-05-27T00:57:13;102927.75;;;8.85
8533;BMP280;4304;53.876;10.662;2023-05-27T00:59:38;102935.50;;;8.86
8533;BMP280;4304;53.876;10.662;2023-05-27T01:02:05;102947.56;;;8.86
8533;BMP280;4304;53.876;10.662;2023-05-27T01:04:30;102939.69;;;8.90
8533;BMP280;4304;53.876;10.662;2023-05-27T01:07:29;102936.38;;;8.85
8533;BMP280;4304;53.876;10.662;2023-05-27T01:10:12;102930.31;;;8.86
8533;BMP280;4304;53.876;10.662;2023-05-27T01:12:59;102930.38;;;8.83
8533;BMP280;4304;53.876;10.662;2023-05-27T01:15:25;102934.78;;;8.80
8533;BMP280;4304;53.876;10.662;2023-05-27T01:17:55;102942.56;;;8.80
8533;BMP280;4304;53.876;10.662;2023-05-27T01:20:20;102935.69;;;8.77
8533;BMP280;4304;53.876;10.662;2023-05-27T01:22:46;102940.91;;;8.76
8533;BMP280;4304;53.876;10.662;2023-05-27T01:25:12;102948.81;;;8.71
8533;BMP280;4304;53.876;10.662;2023-05-27T01:27:38;102950.59;;;8.69
8533;BMP280;4304;53.876;10.662;2023-05-27T01:30:06;102938.38;;;8.74
8533;BMP280;4304;53.876;10.662;2023-05-27T01:35:46;102930.59;;;8.74
8533;BMP280;4304;53.876;10.662;2023-05-27T01:37:52;102928.13;;;8.70
8533;BMP280;4304;53.876;10.662;2023-05-27T01:40:19;102929.94;;;8.66
8533;BMP280;4304;53.876;10.662;2023-05-27T01:42:45;102932.72;;;8.59
8533;BMP280;4304;53.876;10.662;2023-05-27T01:45:12;102935.31;;;8.59
8533;BMP280;4304;53.876;10.662;2023-05-27T01:47:38;102930.13;;;8.59
8533;BMP280;4304;53.876;10.662;2023-05-27T01:50:04;102935.41;;;8.54
8533;BMP280;4304;53.876;10.662;2023-05-27T01:52:30;102935.50;;;8.51
8533;BMP280;4304;53.876;10.662;2023-05-27T01:54:55;102934.66;;;8.51
8533;BMP280;4304;53.876;10.662;2023-05-27T01:57:21;102937.34;;;8.47
8533;BMP280;4304;53.876;10.662;2023-05-27T01:59:46;102934.66;;;8.51
8533;BMP280;4304;53.876;10.662;2023-05-27T02:02:12;102935.66;;;8.46
8533;BMP280;4304;53.876;10.662;2023-05-27T02:04:37;102937.56;;;8.38
8533;BMP280;4304;53.876;10.662;2023-05-27T02:07:03;102937.59;;;8.36
8533;BMP280;4304;53.876;10.662;2023-05-27T02:09:28;102937.63;;;8.35
8533;BMP280;4304;53.876;10.662;2023-05-27T02:11:53;102931.78;;;8.27
8533;BMP280;4304;53.876;10.662;2023-05-27T02:14:19;102939.66;;;8.24
8533;BMP280;4304;53.876;10.662;2023-05-27T02:16:44;102935.38;;;8.21
8533;BMP280;4304;53.876;10.662;2023-05-27T02:19:09;102918.94;;;8.24
8533;BMP280;4304;53.876;10.662;2023-05-27T02:21:35;102919.88;;;8.20
8533;BMP280;4304;53.876;10.662;2023-05-27T02:24:03;102929.44;;;8.16
8533;BMP280;4304;53.876;10.662;2023-05-27T02:26:29;102933.03;;;8.11
8533;BMP280;4304;53.876;10.662;2023-05-27T02:28:54;102928.78;;;8.06
8533;BMP280;4304;53.876;10.662;2023-05-27T02:31:21;102928.78;;;8.07
8533;BMP280;4304;53.876;10.662;2023-05-27T02:33:47;102924.53;;;8.05
8533;BMP280;4304;53.876;10.662;2023-05-27T02:36:13;102926.31;;;8.03
8533;BMP280;4304;53.876;10.662;2023-05-27T02:38:38;102925.59;;;7.96
8533;BMP280;4304;53.876;10.662;2023-05-27T02:41:03;102930.78;;;7.95
8533;BMP280;4304;53.876;10.662;2023-05-27T02:43:29;102927.47;;;7.90
8533;BMP280;4304;53.876;10.662;2023-05-27T02:45:54;102921.50;;;7.86
8533;BMP280;4304;53.876;10.662;2023-05-27T02:48:20;102926.75;;;7.82
8533;BMP280;4304;53.876;10.662;2023-05-27T02:50:45;102925.03;;;7.81
8533;BMP280;4304;53.876;10.662;2023-05-27T02:53:10;102926.72;;;7.85
8533;BMP280;4304;53.876;10.662;2023-05-27T02:55:36;102931.84;;;7.86
8533;BMP280;4304;53.876;10.662;2023-05-27T02:58:01;102925.94;;;7.81
8533;BMP280;4304;53.876;10.662;2023-05-27T03:00:28;102941.50;;;7.80
8533;BMP280;4304;53.876;10.662;2023-05-27T03:02:54;102939.81;;;7.76
8533;BMP280;4304;53.876;10.662;2023-05-27T03:05:19;102943.41;;;7.70
8533;BMP280;4304;53.876;10.662;2023-05-27T03:07:44;102946.06;;;7.67
8533;BMP280;4304;53.876;10.662;2023-05-27T03:10:10;102946.13;;;7.64
8533;BMP280;4304;53.876;10.662;2023-05-27T03:12:35;102949.53;;;7.66
8533;BMP280;4304;53.876;10.662;2023-05-27T03:15:01;102940.06;;;7.65
8533;BMP280;4304;53.876;10.662;2023-05-27T03:17:28;102934.84;;;7.68
8533;BMP280;4304;53.876;10.662;2023-05-27T03:19:54;102937.38;;;7.70
8533;BMP280;4304;53.876;10.662;2023-05-27T03:22:19;102938.16;;;7.75
8533;BMP280;4304;53.876;10.662;2023-05-27T03:24:44;102942.34;;;7.80
8533;BMP280;4304;53.876;10.662;2023-05-27T03:27:10;102934.56;;;7.80
8533;BMP280;4304;53.876;10.662;2023-05-27T03:29:35;102949.09;;;7.86
8533;BMP280;4304;53.876;10.662;2023-05-27T03:32:01;102934.44;;;7.86
8533;BMP280;4304;53.876;10.662;2023-05-27T03:34:26;102943.06;;;7.87
8533;BMP280;4304;53.876;10.662;2023-05-27T03:36:51;102945.56;;;7.91
8533;BMP280;4304;53.876;10.662;2023-05-27T03:39:17;102947.19;;;7.94
8533;BMP280;4304;53.876;10.662;2023-05-27T03:41:43;102947.06;;;8.01
8533;BMP280;4304;53.876;10.662;2023-05-27T03:44:08;102935.81;;;8.01
8533;BMP280;4304;53.876;10.662;2023-05-27T03:46:34;102930.53;;;8.05
8533;BMP280;4304;53.876;10.662;2023-05-27T03:49:00;102943.44;;;8.08
8533;BMP280;4304;53.876;10.662;2023-05-27T03:51:25;102938.13;;;8.14
8533;BMP280;4304;53.876;10.662;2023-05-27T03:53:51;102935.28;;;8.26
8533;BMP280;4304;53.876;10.662;2023-05-27T03:56:16;102930.91;;;8.28
8533;BMP280;4304;53.876;10.662;2023-05-27T03:58:41;102933.19;;;8.40
8533;BMP280;4304;53.876;10.662;2023-05-27T04:01:07;102937.28;;;8.50
8533;BMP280;4304;53.876;10.662;2023-05-27T04:03:33;102928.41;;;8.58
8533;BMP280;4304;53.876;10.662;2023-05-27T04:05:59;102945.38;;;8.71
8533;BMP280;4304;53.876;10.662;2023-05-27T04:08:24;102935.50;;;8.86
8533;BMP280;4304;53.876;10.662;2023-05-27T04:10:53;102939.09;;;9.12
8533;BMP280;4304;53.876;10.662;2023-05-27T04:13:18;102925.56;;;9.32
8533;BMP280;4304;53.876;10.662;2023-05-27T04:15:44;102940.34;;;9.60
8533;BMP280;4304;53.876;10.662;2023-05-27T04:18:10;102942.09;;;9.88
8533;BMP280;4304;53.876;10.662;2023-05-27T04:20:39;102944.63;;;10.18
8533;BMP280;4304;53.876;10.662;2023-05-27T04:23:07;102953.44;;;10.40
8533;BMP280;4304;53.876;10.662;2023-05-27T04:25:32;102947.56;;;10.61
8533;BMP280;4304;53.876;10.662;2023-05-27T04:27:59;102945.47;;;10.96
8533;BMP280;4304;53.876;10.662;2023-05-27T04:30:24;102952.47;;;11.18
8533;BMP280;4304;53.876;10.662;2023-05-27T04:32:51;102946.06;;;11.28
8533;BMP280;4304;53.876;10.662;2023-05-27T04:35:17;102942.72;;;11.49
8533;BMP280;4304;53.876;10.662;2023-05-27T04:37:43;102937.47;;;11.73
8533;BMP280;4304;53.876;10.662;2023-05-27T04:40:10;102945.66;;;11.85
8533;BMP280;4304;53.876;10.662;2023-05-27T04:42:36;102937.41;;;11.95
8533;BMP280;4304;53.876;10.662;2023-05-27T04:45:04;102937.63;;;12.12
8533;BMP280;4304;53.876;10.662;2023-05-27T04:47:34;102944.59;;;12.33
8533;BMP280;4304;53.876;10.662;2023-05-27T04:50:03;102943.00;;;12.50
8533;BMP280;4304;53.876;10.662;2023-05-27T04:52:29;102931.41;;;12.57
8533;BMP280;4304;53.876;10.662;2023-05-27T04:54:54;102921.06;;;12.76
8533;BMP280;4304;53.876;10.662;2023-05-27T04:57:20;102938.34;;;12.99
8533;BMP280;4304;53.876;10.662;2023-05-27T04:59:46;102936.97;;;13.11
8533;BMP280;4304;53.876;10.662;2023-05-27T05:02:27;102938.63;;;13.31
8533;BMP280;4304;53.876;10.662;2023-05-27T05:05:09;102937.19;;;13.63
8533;BMP280;4304;53.876;10.662;2023-05-27T05:07:39;102944.50;;;13.93
8533;BMP280;4304;53.876;10.662;2023-05-27T05:10:07;102943.53;;;14.13
8533;BMP280;4304;53.876;10.662;2023-05-27T05:12:33;102941.66;;;13.97
8533;BMP280;4304;53.876;10.662;2023-05-27T05:14:59;102932.09;;;14.33
8533;BMP280;4304;53.876;10.662;2023-05-27T05:17:24;102935.25;;;14.39
8533;BMP280;4304;53.876;10.662;2023-05-27T05:19:53;102914.88;;;14.46
8533;BMP280;4304;53.876;10.662;2023-05-27T05:22:18;102927.66;;;14.85
8533;BMP280;4304;53.876;10.662;2023-05-27T05:24:47;102938.47;;;14.96
8533;BMP280;4304;53.876;10.662;2023-05-27T05:27:12;102940.69;;;14.53
8533;BMP280;4304;53.876;10.662;2023-05-27T05:29:38;102916.28;;;13.99
8533;BMP280;4304;53.876;10.662;2023-05-27T05:32:04;102922.25;;;14.38
8533;BMP280;4304;53.876;10.662;2023-05-27T05:34:29;102929.81;;;14.44
8533;BMP280;4304;53.876;10.662;2023-05-27T05:36:55;102918.19;;;14.49
8533;BMP280;4304;53.876;10.662;2023-05-27T05:39:20;102939.09;;;14.84
8533;BMP280;4304;53.876;10.662;2023-05-27T05:41:46;102948.16;;;15.11
8533;BMP280;4304;53.876;10.662;2023-05-27T05:44:12;102959.78;;;15.86
8533;BMP280;4304;53.876;10.662;2023-05-27T05:46:37;102941.69;;;15.18
8533;BMP280;4304;53.876;10.662;2023-05-27T05:49:03;102929.97;;;15.08
8533;BMP280;4304;53.876;10.662;2023-05-27T05:51:29;102933.38;;;16.05
8533;BMP280;4304;53.876;10.662;2023-05-27T05:53:54;102952.78;;;16.02
8533;BMP280;4304;53.876;10.662;2023-05-27T05:56:19;102915.56;;;14.32
8533;BMP280;4304;53.876;10.662;2023-05-27T05:58:45;102947.00;;;14.99
8533;BMP280;4304;53.876;10.662;2023-05-27T06:01:10;102922.22;;;14.90
8533;BMP280;4304;53.876;10.662;2023-05-27T06:03:36;102947.00;;;15.16
8533;BMP280;4304;53.876;10.662;2023-05-27T06:06:02;102940.97;;;15.14
8533;BMP280;4304;53.876;10.662;2023-05-27T06:08:28;102934.38;;;15.07
8533;BMP280;4304;53.876;10.662;2023-05-27T06:10:53;102944.47;;;15.79
8533;BMP280;4304;53.876;10.662;2023-05-27T06:13:18;102948.19;;;16.06
8533;BMP280;4304;53.876;10.662;2023-05-27T06:15:44;102967.88;;;16.74
8533;BMP280;4304;53.876;10.662;2023-05-27T06:18:09;102953.47;;;16.21
8533;BMP280;4304;53.876;10.662;2023-05-27T06:20:35;102974.91;;;16.73
8533;BMP280;4304;53.876;10.662;2023-05-27T06:23:01;102942.25;;;15.87
8533;BMP280;4304;53.876;10.662;2023-05-27T06:25:26;102977.19;;;15.72
8533;BMP280;4304;53.876;10.662;2023-05-27T06:27:52;102954.84;;;15.65
8533;BMP280;4304;53.876;10.662;2023-05-27T06:30:17;102952.16;;;15.82
8533;BMP280;4304;53.876;10.662;2023-05-27T06:32:42;102958.34;;;15.96
8533;BMP280;4304;53.876;10.662;2023-05-27T06:35:08;102918.66;;;15.07
8533;BMP280;4304;53.876;10.662;2023-05-27T06:37:33;102936.41;;;15.51
8533;BMP280;4304;53.876;10.662;2023-05-27T06:39:58;102954.38;;;15.74
8533;BMP280;4304;53.876;10.662;2023-05-27T06:42:24;102975.13;;;16.55
8533;BMP280;4304;53.876;10.662;2023-05-27T06:44:49;102970.78;;;16.54
8533;BMP280;4304;53.876;10.662;2023-05-27T06:47:15;102989.09;;;17.00
8533;BMP280;4304;53.876;10.662;2023-05-27T06:49:40;103028.56;;;17.85
8533;BMP280;4304;53.876;10.662;2023-05-27T06:52:05;102985.75;;;16.97
8533;BMP280;4304;53.876;10.662;2023-05-27T06:54:31;102966.53;;;17.67
8533;BMP280;4304;53.876;10.662;2023-05-27T06:56:57;102981.66;;;17.07
8533;BMP280;4304;53.876;10.662;2023-05-27T06:59:22;102978.94;;;17.08
8533;BMP280;4304;53.876;10.662;2023-05-27T07:01:48;103017.16;;;18.26
8533;BMP280;4304;53.876;10.662;2023-05-27T07:04:13;103038.03;;;19.46
8533;BMP280;4304;53.876;10.662;2023-05-27T07:06:39;103032.66;;;19.60
8533;BMP280;4304;53.876;10.662;2023-05-27T07:09:04;103032.53;;;18.98
8533;BMP280;4304;53.876;10.662;2023-05-27T07:11:29;102992.97;;;18.85
8533;BMP280;4304;53.876;10.662;2023-05-27T07:13:55;103038.47;;;19.89
8533;BMP280;4304;53.876;10.662;2023-05-27T07:16:20;103021.03;;;19.62
8533;BMP280;4304;53.876;10.662;2023-05-27T07:18:46;102953.25;;;18.24
8533;BMP280;4304;53.876;10.662;2023-05-27T07:21:11;102988.22;;;19.29
8533;BMP280;4304;53.876;10.662;2023-05-27T07:23:37;103013.16;;;19.87
8533;BMP280;4304;53.876;10.662;2023-05-27T07:26:02;103058.56;;;20.40
8533;BMP280;4304;53.876;10.662;2023-05-27T07:28:27;103047.38;;;20.36
8533;BMP280;4304;53.876;10.662;2023-05-27T07:30:52;103007.97;;;19.85
8533;BMP280;4304;53.876;10.662;2023-05-27T07:33:18;103016.28;;;20.63
8533;BMP280;4304;53.876;10.662;2023-05-27T07:35:44;103024.91;;;20.54
8533;BMP280;4304;53.876;10.662;2023-05-27T07:38:09;103000.31;;;20.18
8533;BMP280;4304;53.876;10.662;2023-05-27T07:40:35;103023.00;;;21.02
8533;BMP280;4304;53.876;10.662;2023-05-27T07:43:01;103031.81;;;21.14
8533;BMP280;4304;53.876;10.662;2023-05-27T07:45:26;103004.91;;;21.31
8533;BMP280;4304;53.876;10.662;2023-05-27T07:47:51;103052.69;;;21.85
8533;BMP280;4304;53.876;10.662;2023-05-27T07:50:17;103046.78;;;21.37
8533;BMP280;4304;53.876;10.662;2023-05-27T07:52:42;103016.75;;;21.14
8533;BMP280;4304;53.876;10.662;2023-05-27T07:55:08;103001.88;;;20.44
8533;BMP280;4304;53.876;10.662;2023-05-27T07:57:33;103010.63;;;20.56
8533;BMP280;4304;53.876;10.662;2023-05-27T07:59:58;102992.66;;;19.90
8533;BMP280;4304;53.876;10.662;2023-05-27T08:02:24;102966.38;;;20.24
8533;BMP280;4304;53.876;10.662;2023-05-27T08:04:50;102934.09;;;19.48
8533;BMP280;4304;53.876;10.662;2023-05-27T08:07:16;102928.06;;;19.71
8533;BMP280;4304;53.876;10.662;2023-05-27T08:09:41;102954.47;;;19.34
8533;BMP280;4304;53.876;10.662;2023-05-27T08:12:06;102966.88;;;19.81
8533;BMP280;4304;53.876;10.662;2023-05-27T08:14:32;102977.03;;;19.50
8533;BMP280;4304;53.876;10.662;2023-05-27T08:16:58;102989.50;;;19.85
8533;BMP280;4304;53.876;10.662;2023-05-27T08:19:23;102984.59;;;20.04
8533;BMP280;4304;53.876;10.662;2023-05-27T08:21:48;102968.56;;;19.70
8533;BMP280;4304;53.876;10.662;2023-05-27T08:24:14;102966.91;;;19.57
8533;BMP280;4304;53.876;10.662;2023-05-27T08:26:39;102968.72;;;19.56
8533;BMP280;4304;53.876;10.662;2023-05-27T08:29:05;102970.28;;;19.46
8533;BMP280;4304;53.876;10.662;2023-05-27T08:31:30;102955.41;;;19.08
8533;BMP280;4304;53.876;10.662;2023-05-27T08:33:56;102912.16;;;18.07
8533;BMP280;4304;53.876;10.662;2023-05-27T08:36:21;102899.72;;;18.49
8533;BMP280;4304;53.876;10.662;2023-05-27T08:38:47;102904.84;;;18.89
8533;BMP280;4304;53.876;10.662;2023-05-27T08:41:13;102880.09;;;18.92
8533;BMP280;4304;53.876;10.662;2023-05-27T08:43:38;102924.72;;;19.07
8533;BMP280;4304;53.876;10.662;2023-05-27T08:46:04;102913.75;;;19.01
8533;BMP280;4304;53.876;10.662;2023-05-27T08:48:29;102924.81;;;19.06
8533;BMP280;4304;53.876;10.662;2023-05-27T08:50:55;102901.88;;;18.69
8533;BMP280;4304;53.876;10.662;2023-05-27T08:53:22;102940.47;;;18.83
8533;BMP280;4304;53.876;10.662;2023-05-27T08:55:50;102901.19;;;18.53
8533;BMP280;4304;53.876;10.662;2023-05-27T08:58:17;102902.56;;;18.59
8533;BMP280;4304;53.876;10.662;2023-05-27T09:00:43;102909.94;;;19.05
8533;BMP280;4304;53.876;10.662;2023-05-27T09:03:09;102923.25;;;19.28
8533;BMP280;4304;53.876;10.662;2023-05-27T09:05:34;102932.84;;;19.29
8533;BMP280;4304;53.876;10.662;2023-05-27T09:07:59;102952.25;;;19.28
8533;BMP280;4304;53.876;10.662;2023-05-27T09:10:37;102932.72;;;19.55
8533;BMP280;4304;53.876;10.662;2023-05-27T09:13:03;102940.50;;;20.63
8533;BMP280;4304;53.876;10.662;2023-05-27T09:15:31;102969.38;;;21.56
8533;BMP280;4304;53.876;10.662;2023-05-27T09:17:57;102961.81;;;21.74
8533;BMP280;4304;53.876;10.662;2023-05-27T09:20:27;102964.66;;;21.82
8533;BMP280;4304;53.876;10.662;2023-05-27T09:23:03;102983.03;;;21.18
8533;BMP280;4304;53.876;10.662;2023-05-27T09:25:29;102925.97;;;20.92
8533;BMP280;4304;53.876;10.662;2023-05-27T09:27:55;102943.81;;;21.12
8533;BMP280;4304;53.876;10.662;2023-05-27T09:30:21;102921.38;;;20.83
8533;BMP280;4304;53.876;10.662;2023-05-27T09:32:47;102933.38;;;20.30
8533;BMP280;4304;53.876;10.662;2023-05-27T09:35:14;102886.84;;;20.40
8533;BMP280;4304;53.876;10.662;2023-05-27T09:37:39;102953.94;;;20.37
8533;BMP280;4304;53.876;10.662;2023-05-27T09:40:07;102887.22;;;20.00
8533;BMP280;4304;53.876;10.662;2023-05-27T09:45:11;102910.34;;;19.48
8533;BMP280;4304;53.876;10.662;2023-05-27T09:47:39;102903.81;;;20.48
8533;BMP280;4304;53.876;10.662;2023-05-27T09:50:07;102974.34;;;21.16
8533;BMP280;4304;53.876;10.662;2023-05-27T09:52:34;102921.25;;;21.51
8533;BMP280;4304;53.876;10.662;2023-05-27T09:55:01;102970.50;;;21.20
8533;BMP280;4304;53.876;10.662;2023-05-27T09:57:28;102943.53;;;21.04
8533;BMP280;4304;53.876;10.662;2023-05-27T09:59:54;102950.13;;;21.87
8533;BMP280;4304;53.876;10.662;2023-05-27T10:02:20;102972.97;;;22.21
8533;BMP280;4304;53.876;10.662;2023-05-27T10:04:47;102951.16;;;22.28
8533;BMP280;4304;53.876;10.662;2023-05-27T10:07:16;102933.38;;;21.97
8533;BMP280;4304;53.876;10.662;2023-05-27T10:09:44;102993.34;;;22.51
8533;BMP280;4304;53.876;10.662;2023-05-27T10:12:10;102982.81;;;22.08
8533;BMP280;4304;53.876;10.662;2023-05-27T10:14:35;102981.78;;;21.78
8533;BMP280;4304;53.876;10.662;2023-05-27T10:17:00;102956.00;;;22.01
8533;BMP280;4304;53.876;10.662;2023-05-27T10:19:26;102971.75;;;22.14
8533;BMP280;4304;53.876;10.662;2023-05-27T10:21:52;102913.47;;;22.14
8533;BMP280;4304;53.876;10.662;2023-05-27T10:24:18;102926.38;;;22.18
8533;BMP280;4304;53.876;10.662;2023-05-27T10:26:45;102941.03;;;22.22
8533;BMP280;4304;53.876;10.662;2023-05-27T10:29:11;102928.91;;;21.98
8533;BMP280;4304;53.876;10.662;2023-05-27T10:31:48;102945.97;;;22.16
8533;BMP280;4304;53.876;10.662;2023-05-27T10:34:14;102957.91;;;21.99
8533;BMP280;4304;53.876;10.662;2023-05-27T10:36:39;102924.47;;;21.98
8533;BMP280;4304;53.876;10.662;2023-05-27T10:41:48;102955.47;;;22.29
8533;BMP280;4304;53.876;10.662;2023-05-27T10:44:14;102922.53;;;22.73
8533;BMP280;4304;53.876;10.662;2023-05-27T10:46:49;103001.63;;;22.69
8533;BMP280;4304;53.876;10.662;2023-05-27T10:49:25;102935.13;;;22.81
8533;BMP280;4304;53.876;10.662;2023-05-27T10:51:53;102971.22;;;23.04
8533;BMP280;4304;53.876;10.662;2023-05-27T10:54:18;102986.34;;;23.13
8533;BMP280;4304;53.876;10.662;2023-05-27T10:56:51;102975.94;;;23.41
8533;BMP280;4304;53.876;10.662;2023-05-27T10:59:21;102991.16;;;23.18
8533;BMP280;4304;53.876;10.662;2023-05-27T11:01:50;102917.53;;;23.41
8533;BMP280;4304;53.876;10.662;2023-05-27T11:04:16;102969.31;;;23.56
8533;BMP280;4304;53.876;10.662;2023-05-27T11:06:41;102934.31;;;22.07
8533;BMP280;4304;53.876;10.662;2023-05-27T11:09:07;102924.31;;;22.53
8533;BMP280;4304;53.876;10.662;2023-05-27T11:11:32;102924.94;;;21.92
8533;BMP280;4304;53.876;10.662;2023-05-27T11:13:59;102919.88;;;22.73
8533;BMP280;4304;53.876;10.662;2023-05-27T11:16:24;102914.63;;;22.83
8533;BMP280;4304;53.876;10.662;2023-05-27T11:18:50;102911.97;;;23.53
8533;BMP280;4304;53.876;10.662;2023-05-27T11:21:16;102917.25;;;22.42
8533;BMP280;4304;53.876;10.662;2023-05-27T11:23:46;102928.84;;;22.30
8533;BMP280;4304;53.876;10.662;2023-05-27T11:26:18;102907.13;;;21.94
8533;BMP280;4304;53.876;10.662;2023-05-27T11:31:17;102910.88;;;22.65
8533;BMP280;4304;53.876;10.662;2023-05-27T11:33:44;102942.59;;;23.27
8533;BMP280;4304;53.876;10.662;2023-05-27T11:36:13;102930.81;;;23.70
8533;BMP280;4304;53.876;10.662;2023-05-27T11:41:15;102935.31;;;23.50
8533;BMP280;4304;53.876;10.662;2023-05-27T11:43:54;102920.06;;;22.30
8533;BMP280;4304;53.876;10.662;2023-05-27T11:46:21;102866.63;;;21.61
8533;BMP280;4304;53.876;10.662;2023-05-27T11:48:47;102844.22;;;20.67
8533;BMP280;4304;53.876;10.662;2023-05-27T11:51:13;102817.84;;;21.00
8533;BMP280;4304;53.876;10.662;2023-05-27T11:53:39;102823.13;;;20.55
8533;BMP280;4304;53.876;10.662;2023-05-27T11:56:06;102796.66;;;19.99
8533;BMP280;4304;53.876;10.662;2023-05-27T11:58:31;102803.91;;;20.08
8533;BMP280;4304;53.876;10.662;2023-05-27T12:00:56;102806.56;;;20.19
8533;BMP280;4304;53.876;10.662;2023-05-27T12:03:22;102803.56;;;20.57
8533;BMP280;4304;53.876;10.662;2023-05-27T12:05:47;102791.97;;;20.37
8533;BMP280;4304;53.876;10.662;2023-05-27T12:08:12;102765.66;;;20.80
8533;BMP280;4304;53.876;10.662;2023-05-27T12:10:38;102797.50;;;20.90
8533;BMP280;4304;53.876;10.662;2023-05-27T12:13:06;102782.13;;;20.05
8533;BMP280;4304;53.876;10.662;2023-05-27T12:15:32;102746.94;;;20.27
8533;BMP280;4304;53.876;10.662;2023-05-27T12:17:57;102744.72;;;20.56
8533;BMP280;4304;53.876;10.662;2023-05-27T12:20:23;102741.63;;;21.05
8533;BMP280;4304;53.876;10.662;2023-05-27T12:22:53;102717.56;;;21.19
8533;BMP280;4304;53.876;10.662;2023-05-27T12:25:19;102727.25;;;21.82
8533;BMP280;4304;53.876;10.662;2023-05-27T12:27:44;102751.84;;;22.25
8533;BMP280;4304;53.876;10.662;2023-05-27T12:30:11;102791.56;;;22.65
8533;BMP280;4304;53.876;10.662;2023-05-27T12:32:36;102769.47;;;22.75
8533;BMP280;4304;53.876;10.662;2023-05-27T12:35:01;102786.25;;;22.65
8533;BMP280;4304;53.876;10.662;2023-05-27T12:37:27;102789.25;;;23.01
8533;BMP280;4304;53.876;10.662;2023-05-27T12:39:53;102761.84;;;23.30
8533;BMP280;4304;53.876;10.662;2023-05-27T12:42:18;102810.69;;;23.58
8533;BMP280;4304;53.876;10.662;2023-05-27T12:44:44;102820.31;;;23.58
8533;BMP280;4304;53.876;10.662;2023-05-27T12:47:09;102806.00;;;23.31
8533;BMP280;4304;53.876;10.662;2023-05-27T12:49:36;102818.38;;;23.51
8533;BMP280;4304;53.876;10.662;2023-05-27T12:52:01;102836.53;;;23.56
8533;BMP280;4304;53.876;10.662;2023-05-27T12:54:28;102810.22;;;23.04
8533;BMP280;4304;53.876;10.662;2023-05-27T12:56:55;102817.56;;;22.91
8533;BMP280;4304;53.876;10.662;2023-05-27T12:59:20;102810.66;;;23.48
8533;BMP280;4304;53.876;10.662;2023-05-27T13:01:46;102777.63;;;23.22
8533;BMP280;4304;53.876;10.662;2023-05-27T13:04:11;102767.88;;;23.32
8533;BMP280;4304;53.876;10.662;2023-05-27T13:06:37;102767.19;;;23.40
8533;BMP280;4304;53.876;10.662;2023-05-27T13:09:04;102757.91;;;23.64
8533;BMP280;4304;53.876;10.662;2023-05-27T13:11:30;102758.84;;;23.44
8533;BMP280;4304;53.876;10.662;2023-05-27T13:13:55;102763.38;;;23.81
8533;BMP280;4304;53.876;10.662;2023-05-27T13:16:20;102795.69;;;24.14
8533;BMP280;4304;53.876;10.662;2023-05-27T13:18:46;102803.66;;;24.43
8533;BMP280;4304;53.876;10.662;2023-05-27T13:21:11;102763.41;;;22.64
8533;BMP280;4304;53.876;10.662;2023-05-27T13:23:37;102753.47;;;23.16
8533;BMP280;4304;53.876;10.662;2023-05-27T13:26:02;102760.31;;;22.59
8533;BMP280;4304;53.876;10.662;2023-05-27T13:28:27;102736.25;;;22.51
8533;BMP280;4304;53.876;10.662;2023-05-27T13:30:53;102711.81;;;22.07
8533;BMP280;4304;53.876;10.662;2023-05-27T13:33:18;102707.13;;;21.59
8533;BMP280;4304;53.876;10.662;2023-05-27T13:35:44;102725.69;;;22.31
8533;BMP280;4304;53.876;10.662;2023-05-27T13:38:09;102754.53;;;23.04
8533;BMP280;4304;53.876;10.662;2023-05-27T13:40:38;102752.28;;;23.00
8533;BMP280;4304;53.876;10.662;2023-05-27T13:43:04;102710.97;;;21.86
8533;BMP280;4304;53.876;10.662;2023-05-27T13:45:29;102673.19;;;21.22
8533;BMP280;4304;53.876;10.662;2023-05-27T13:47:55;102656.47;;;21.22
8533;BMP280;4304;53.876;10.662;2023-05-27T13:50:21;102674.16;;;21.84
8533;BMP280;4304;53.876;10.662;2023-05-27T13:52:46;102676.38;;;22.19
8533;BMP280;4304;53.876;10.662;2023-05-27T13:55:11;102665.50;;;22.72
8533;BMP280;4304;53.876;10.662;2023-05-27T13:57:37;102682.00;;;22.55
8533;BMP280;4304;53.876;10.662;2023-05-27T14:00:03;102662.16;;;21.80
8533;BMP280;4304;53.876;10.662;2023-05-27T14:02:29;102650.69;;;21.28
8533;BMP280;4304;53.876;10.662;2023-05-27T14:04:54;102638.00;;;21.53
8533;BMP280;4304;53.876;10.662;2023-05-27T14:07:20;102622.31;;;20.88
8533;BMP280;4304;53.876;10.662;2023-05-27T14:09:46;102578.38;;;20.76
8533;BMP280;4304;53.876;10.662;2023-05-27T14:12:11;102562.53;;;20.54
8533;BMP280;4304;53.876;10.662;2023-05-27T14:14:37;102537.00;;;19.89
8533;BMP280;4304;53.876;10.662;2023-05-27T14:17:02;102528.97;;;19.91
8533;BMP280;4304;53.876;10.662;2023-05-27T14:19:27;102534.06;;;20.47